Time;durP1;ratioP1;P1;durP2;ratioP2;P2;SDS_P1;SDS_P2;PMS_P1;PMS_P2;Temp;Humidity;BMP_temperature;BMP_pressure;BME280_temperature;BME280_humidity;BME280_pressure;Samples;Min_cycle;Max_cycle;Signal;HPM_P1;HPM_P2
2023/05/30 00:00:28;;;;;;;11.45;4.07;;;10.90;99.90;;;;;;4973475;28;20520;-82
2023/05/30 00:02:54;;;;;;;11.65;4.78;;;10.90;99.90;;;;;;4984864;28;20161;-81
2023/05/30 00:05:20;;;;;;;10.00;4.50;;;10.90;99.90;;;;;;4974494;28;20389;-83
2023/05/30 00:07:46;;;;;;;12.05;4.88;;;10.90;99.90;;;;;;4986083;28;20058;-82
2023/05/30 00:10:12;;;;;;;15.57;5.10;;;10.90;99.90;;;;;;4991546;28;20034;-82
2023/05/30 00:12:40;;;;;;;9.85;4.63;;;10.90;99.90;;;;;;4973434;28;20576;-82
2023/05/30 00:15:07;;;;;;;13.13;5.13;;;10.90;99.90;;;;;;4976182;28;20042;-82
2023/05/30 00:17:35;;;;;;;14.05;4.85;;;10.80;99.90;;;;;;4974776;28;20156;-81
2023/05/30 00:20:02;;;;;;;19.77;5.55;;;10.90;99.90;;;;;;4982248;28;20069;-82
2023/05/30 00:22:28;;;;;;;14.35;4.30;;;10.90;99.90;;;;;;4954376;28;20050;-82
2023/05/30 00:24:55;;;;;;;12.27;4.78;;;10.90;99.90;;;;;;4972528;28;20488;-82
2023/05/30 00:27:21;;;;;;;9.55;4.88;;;10.90;99.90;;;;;;4985097;28;20042;-82
2023/05/30 00:29:46;;;;;;;15.55;5.15;;;10.90;99.90;;;;;;4956943;28;20049;-82
2023/05/30 00:32:13;;;;;;;13.65;4.80;;;10.90;99.90;;;;;;4974438;28;20078;-81
2023/05/30 00:34:38;;;;;;;12.10;4.97;;;10.90;99.90;;;;;;4968770;28;20182;-82
2023/05/30 00:37:08;;;;;;;12.43;4.10;;;10.90;99.90;;;;;;4970255;28;20062;-82
2023/05/30 00:39:35;;;;;;;9.93;4.88;;;10.90;99.90;;;;;;4969668;28;20053;-82
2023/05/30 00:42:02;;;;;;;11.27;4.57;;;10.90;99.90;;;;;;4967244;28;20038;-81
2023/05/30 00:44:28;;;;;;;10.90;4.57;;;10.80;99.90;;;;;;4973477;28;20049;-81
2023/05/30 00:46:54;;;;;;;9.35;4.20;;;10.90;99.90;;;;;;4993016;28;20061;-81
2023/05/30 00:49:21;;;;;;;8.55;4.15;;;10.90;99.90;;;;;;4992065;28;20057;-81
2023/05/30 00:51:47;;;;;;;16.70;5.05;;;10.80;99.90;;;;;;4958017;28;20133;-82
2023/05/30 00:54:13;;;;;;;8.43;4.18;;;10.80;99.90;;;;;;4977103;28;20504;-82
2023/05/30 00:56:40;;;;;;;7.95;4.40;;;10.80;99.90;;;;;;4971945;28;20581;-81
2023/05/30 00:59:08;;;;;;;12.43;3.78;;;10.90;99.90;;;;;;4982110;28;20759;-81
2023/05/30 01:01:34;;;;;;;11.65;4.18;;;10.80;99.90;;;;;;4989977;28;20504;-81
2023/05/30 01:04:01;;;;;;;11.02;4.05;;;10.80;99.90;;;;;;4977820;28;20124;-82
2023/05/30 01:06:30;;;;;;;13.75;4.10;;;10.80;99.90;;;;;;4977537;28;20046;-82
2023/05/30 01:09:02;;;;;;;15.38;4.18;;;10.80;99.90;;;;;;4962122;28;20097;-81
2023/05/30 01:11:30;;;;;;;14.00;3.85;;;10.80;99.90;;;;;;4978652;28;20718;-82
2023/05/30 01:14:23;;;;;;;14.13;4.25;;;10.80;99.90;;;;;;4979025;28;20478;-81
2023/05/30 01:17:04;;;;;;;11.25;3.55;;;10.70;99.90;;;;;;4957970;28;20059;-81
2023/05/30 01:19:53;;;;;;;13.43;4.00;;;10.80;99.90;;;;;;4994721;28;20042;-81
2023/05/30 01:22:49;;;;;;;8.73;4.35;;;10.70;99.90;;;;;;4987980;28;20704;-81
2023/05/30 01:25:40;;;;;;;12.85;4.03;;;10.70;99.90;;;;;;4978108;28;20500;-81
2023/05/30 01:28:12;;;;;;;12.88;3.83;;;10.70;99.90;;;;;;4994672;28;20060;-81
2023/05/30 01:30:55;;;;;;;9.77;4.10;;;10.70;99.90;;;;;;4978976;28;20039;-82
2023/05/30 01:33:21;;;;;;;9.55;3.88;;;10.70;99.90;;;;;;4990171;28;20128;-81
2023/05/30 01:35:48;;;;;;;11.85;3.80;;;10.70;99.90;;;;;;4976155;28;20104;-81
2023/05/30 01:38:14;;;;;;;13.05;3.75;;;10.70;99.90;;;;;;4977336;28;20046;-81
2023/05/30 01:40:47;;;;;;;9.70;3.72;;;10.80;99.90;;;;;;4979994;28;20046;-81
2023/05/30 01:43:27;;;;;;;13.88;4.50;;;10.70;99.90;;;;;;4979717;28;20053;-82
2023/05/30 01:46:00;;;;;;;9.73;4.38;;;10.70;99.90;;;;;;4994480;28;20066;-82
2023/05/30 01:49:00;;;;;;;17.90;4.88;;;10.70;99.90;;;;;;4978220;28;20517;-82
2023/05/30 01:51:52;;;;;;;12.70;4.30;;;10.70;99.90;;;;;;4974169;28;20127;-82
2023/05/30 01:54:21;;;;;;;16.92;4.53;;;10.70;99.90;;;;;;4979347;28;20065;-81
2023/05/30 01:57:05;;;;;;;13.13;4.80;;;10.70;99.90;;;;;;4960789;28;20049;-82
2023/05/30 01:59:32;;;;;;;11.00;3.95;;;10.70;99.90;;;;;;4992229;28;20366;-81
2023/05/30 02:02:00;;;;;;;11.00;3.97;;;10.70;99.90;;;;;;4963730;28;20052;-81
2023/05/30 02:04:28;;;;;;;12.43;4.28;;;10.70;99.90;;;;;;4977975;28;20042;-81
2023/05/30 02:06:54;;;;;;;12.75;4.13;;;10.70;99.90;;;;;;4969126;28;20146;-81
2023/05/30 02:09:20;;;;;;;7.63;3.63;;;10.70;99.90;;;;;;4988478;28;20137;-81
2023/05/30 02:11:45;;;;;;;10.55;4.25;;;10.80;99.90;;;;;;4990820;28;20088;-81
2023/05/30 02:14:11;;;;;;;12.38;4.20;;;10.70;99.90;;;;;;4978226;28;20061;-81
2023/05/30 02:16:37;;;;;;;13.40;4.10;;;10.70;99.90;;;;;;4973504;28;20447;-81
2023/05/30 02:19:02;;;;;;;13.55;4.47;;;10.70;99.90;;;;;;4977296;28;20042;-81
2023/05/30 02:21:28;;;;;;;13.02;4.38;;;10.60;99.90;;;;;;4994507;28;20046;-81
2023/05/30 02:23:56;;;;;;;12.38;4.40;;;10.70;99.90;;;;;;4959475;28;20553;-81
2023/05/30 02:26:22;;;;;;;16.55;4.20;;;10.70;99.90;;;;;;4978361;28;20405;-81
2023/05/30 02:28:47;;;;;;;17.35;5.38;;;10.70;99.90;;;;;;4979628;28;20042;-83
2023/05/30 02:31:13;;;;;;;10.00;4.22;;;10.70;99.90;;;;;;4961337;28;20050;-81
2023/05/30 02:33:39;;;;;;;12.98;4.70;;;10.70;99.90;;;;;;4978416;28;20375;-81
2023/05/30 02:36:05;;;;;;;14.48;4.50;;;10.70;99.90;;;;;;4974792;28;20057;-81
2023/05/30 02:38:31;;;;;;;12.07;4.82;;;10.70;99.90;;;;;;4975452;28;20046;-81
2023/05/30 02:40:56;;;;;;;12.70;4.20;;;10.70;99.90;;;;;;4976395;28;20058;-81
2023/05/30 02:43:25;;;;;;;10.85;4.32;;;10.70;99.90;;;;;;4961205;28;20050;-81
2023/05/30 02:45:51;;;;;;;11.50;5.07;;;10.70;99.90;;;;;;4975997;28;20446;-81
2023/05/30 02:48:18;;;;;;;14.55;4.68;;;10.70;99.90;;;;;;4962464;28;20096;-81
2023/05/30 02:50:43;;;;;;;9.20;4.50;;;10.70;99.90;;;;;;4975175;28;20081;-81
2023/05/30 02:53:09;;;;;;;10.77;4.30;;;10.80;99.90;;;;;;4977156;28;20125;-81
2023/05/30 02:55:35;;;;;;;11.65;4.40;;;10.80;99.90;;;;;;4959605;28;20121;-81
2023/05/30 02:58:00;;;;;;;16.63;5.30;;;10.80;99.90;;;;;;4962181;28;20030;-81
2023/05/30 03:00:26;;;;;;;8.73;4.40;;;10.70;99.90;;;;;;4987538;28;20358;-82
2023/05/30 03:02:52;;;;;;;11.50;4.68;;;10.70;99.90;;;;;;4985399;28;20705;-81
2023/05/30 03:05:17;;;;;;;14.80;5.07;;;10.70;99.90;;;;;;4969973;28;20426;-81
2023/05/30 03:07:44;;;;;;;13.32;4.88;;;10.70;99.90;;;;;;4971647;28;20042;-81
2023/05/30 03:10:10;;;;;;;14.65;4.60;;;10.60;99.90;;;;;;4952284;28;20045;-81
2023/05/30 03:12:36;;;;;;;11.05;4.60;;;10.60;99.90;;;;;;4986897;28;20046;-81
2023/05/30 03:15:05;;;;;;;12.60;4.20;;;10.60;99.90;;;;;;4976340;28;20336;-81
2023/05/30 03:17:34;;;;;;;13.80;4.38;;;10.60;99.90;;;;;;4968319;28;20038;-81
2023/05/30 03:20:00;;;;;;;11.35;4.80;;;10.60;99.90;;;;;;4973507;28;20077;-81
2023/05/30 03:22:26;;;;;;;13.98;4.95;;;10.60;99.90;;;;;;4976147;28;20120;-81
2023/05/30 03:24:51;;;;;;;10.55;4.15;;;10.60;99.90;;;;;;4989521;28;20038;-81
2023/05/30 03:27:17;;;;;;;15.63;4.95;;;10.60;99.90;;;;;;4971286;28;20491;-81
2023/05/30 03:29:43;;;;;;;13.18;4.93;;;10.60;99.90;;;;;;4973063;28;20141;-81
2023/05/30 03:32:09;;;;;;;14.95;4.68;;;10.60;99.90;;;;;;4976904;28;20064;-81
2023/05/30 03:34:35;;;;;;;14.13;5.03;;;10.70;99.90;;;;;;4976123;28;20485;-81
2023/05/30 03:37:00;;;;;;;16.48;5.05;;;10.70;99.90;;;;;;4988684;28;20164;-81
2023/05/30 03:39:29;;;;;;;11.80;4.63;;;10.70;99.90;;;;;;4957046;28;20046;-81
2023/05/30 03:41:55;;;;;;;13.23;4.43;;;10.80;99.90;;;;;;4975048;28;20477;-81
2023/05/30 03:44:21;;;;;;;14.43;5.32;;;10.80;99.90;;;;;;4986804;28;20068;-81
2023/05/30 03:46:47;;;;;;;14.07;4.68;;;10.80;99.90;;;;;;4987247;28;20034;-81
2023/05/30 03:49:13;;;;;;;16.65;4.85;;;10.80;99.90;;;;;;4977127;28;20049;-81
2023/05/30 03:51:41;;;;;;;12.45;4.55;;;10.80;99.90;;;;;;4969404;28;20074;-81
2023/05/30 03:54:07;;;;;;;12.30;4.35;;;10.90;99.90;;;;;;4974683;28;20600;-81
2023/05/30 03:56:33;;;;;;;16.20;5.18;;;10.90;99.90;;;;;;4974806;28;20116;-81
2023/05/30 03:58:59;;;;;;;13.50;4.80;;;10.90;99.90;;;;;;4977477;28;20069;-81
2023/05/30 04:01:24;;;;;;;15.70;5.00;;;10.90;99.90;;;;;;4987959;28;20417;-81
2023/05/30 04:03:50;;;;;;;12.85;4.20;;;10.90;99.90;;;;;;4991462;28;20412;-81
2023/05/30 04:06:17;;;;;;;12.30;4.80;;;10.90;99.90;;;;;;4974784;28;20113;-81
2023/05/30 04:08:45;;;;;;;11.38;4.85;;;10.90;99.90;;;;;;4958188;28;20042;-81
2023/05/30 04:11:11;;;;;;;12.82;4.75;;;11.00;99.90;;;;;;4988455;28;20046;-81
2023/05/30 04:13:37;;;;;;;14.05;4.70;;;11.00;99.90;;;;;;4976368;28;20113;-81
2023/05/30 04:16:03;;;;;;;15.38;4.60;;;11.00;99.90;;;;;;4978543;28;20058;-81
2023/05/30 04:18:28;;;;;;;13.30;5.25;;;11.00;99.90;;;;;;4974267;28;20043;-81
2023/05/30 04:20:54;;;;;;;14.95;4.82;;;11.10;99.90;;;;;;4971716;28;20046;-81
2023/05/30 04:23:20;;;;;;;11.32;4.20;;;11.10;99.90;;;;;;4969942;28;20056;-81
2023/05/30 04:25:47;;;;;;;18.13;5.05;;;11.10;99.90;;;;;;4974534;28;20496;-81
2023/05/30 04:28:16;;;;;;;14.80;4.38;;;11.10;99.90;;;;;;4992264;28;20127;-82
2023/05/30 04:30:42;;;;;;;13.10;4.85;;;11.10;99.90;;;;;;4987875;28;20035;-81
2023/05/30 04:33:09;;;;;;;17.25;4.45;;;11.10;99.90;;;;;;4975350;28;20528;-81
2023/05/30 04:35:35;;;;;;;16.55;4.93;;;11.20;99.90;;;;;;4957812;28;20081;-81
2023/05/30 04:38:00;;;;;;;14.00;4.40;;;11.20;99.90;;;;;;4972006;28;20137;-81
2023/05/30 04:40:28;;;;;;;15.63;4.65;;;11.20;99.90;;;;;;4991508;28;20078;-81
2023/05/30 04:42:55;;;;;;;12.98;4.85;;;11.20;99.90;;;;;;4974716;28;20217;-82
2023/05/30 04:45:28;;;;;;;14.23;4.35;;;11.20;99.90;;;;;;4990801;28;20361;-81
2023/05/30 04:47:57;;;;;;;16.58;4.57;;;11.20;99.90;;;;;;4975128;28;20090;-81
2023/05/30 04:50:24;;;;;;;10.45;4.70;;;11.20;99.90;;;;;;4957499;28;20117;-81
2023/05/30 04:52:50;;;;;;;11.25;4.57;;;11.30;99.90;;;;;;4990183;28;20038;-81
2023/05/30 04:55:17;;;;;;;13.48;4.45;;;11.30;99.90;;;;;;4969629;28;20057;-81
2023/05/30 04:57:42;;;;;;;13.95;4.28;;;11.30;99.90;;;;;;4991516;28;20506;-81
2023/05/30 05:00:14;;;;;;;12.65;4.05;;;11.40;99.90;;;;;;4991639;28;20175;-81
2023/05/30 05:02:44;;;;;;;11.93;4.22;;;11.40;99.90;;;;;;4973288;28;20042;-81
2023/05/30 05:05:10;;;;;;;14.77;5.20;;;11.50;99.90;;;;;;4955529;28;20054;-82
2023/05/30 05:07:36;;;;;;;11.63;4.05;;;11.50;99.90;;;;;;4969779;28;20393;-81
2023/05/30 05:10:02;;;;;;;8.48;4.63;;;11.40;99.90;;;;;;4990531;28;20042;-81
2023/05/30 05:12:28;;;;;;;13.10;4.13;;;11.50;99.90;;;;;;4958130;28;20054;-82
2023/05/30 05:14:54;;;;;;;9.95;4.35;;;11.50;99.90;;;;;;4959926;28;20069;-81
2023/05/30 05:17:20;;;;;;;12.77;4.50;;;11.50;99.90;;;;;;4974266;28;20046;-81
2023/05/30 05:19:46;;;;;;;12.07;4.05;;;11.40;99.90;;;;;;4974061;28;20141;-81
2023/05/30 05:22:12;;;;;;;10.80;4.30;;;11.50;99.90;;;;;;4966336;28;20074;-81
2023/05/30 05:24:38;;;;;;;11.55;4.30;;;11.50;99.90;;;;;;4989443;28;20031;-81
2023/05/30 05:27:03;;;;;;;13.57;4.78;;;11.50;99.90;;;;;;4961462;28;20145;-81
2023/05/30 05:29:29;;;;;;;12.57;4.22;;;11.50;99.90;;;;;;4978110;28;20062;-81
2023/05/30 05:31:55;;;;;;;14.15;4.40;;;11.50;99.90;;;;;;4975866;28;20378;-82
2023/05/30 05:34:21;;;;;;;14.85;3.83;;;11.50;99.90;;;;;;4974634;28;20413;-81
2023/05/30 05:36:47;;;;;;;10.90;3.72;;;11.50;99.90;;;;;;4956913;28;20068;-81
2023/05/30 05:39:12;;;;;;;13.20;4.13;;;11.50;99.90;;;;;;4984693;28;20448;-81
2023/05/30 05:41:39;;;;;;;12.90;4.13;;;11.50;99.90;;;;;;4988440;28;20038;-82
2023/05/30 05:44:04;;;;;;;14.25;3.85;;;11.50;99.90;;;;;;4980174;28;20038;-81
2023/05/30 05:46:30;;;;;;;14.75;4.10;;;11.50;99.90;;;;;;4974454;28;20453;-81
2023/05/30 05:48:56;;;;;;;12.57;4.32;;;11.50;99.90;;;;;;4976656;28;20490;-81
2023/05/30 05:51:22;;;;;;;8.10;3.20;;;11.60;99.90;;;;;;4959801;28;20050;-81
2023/05/30 05:53:47;;;;;;;7.63;2.97;;;11.50;99.90;;;;;;4973044;28;20133;-82
2023/05/30 05:56:13;;;;;;;8.73;3.22;;;11.40;99.90;;;;;;4973592;28;20097;-81
2023/05/30 05:58:38;;;;;;;7.90;3.30;;;11.60;99.90;;;;;;4979893;28;20042;-82
2023/05/30 06:01:04;;;;;;;7.90;3.45;;;11.70;99.90;;;;;;4979800;28;20050;-81
2023/05/30 06:03:30;;;;;;;6.30;3.20;;;11.70;99.90;;;;;;4976344;28;20066;-82
2023/05/30 06:05:56;;;;;;;8.32;3.70;;;11.80;99.90;;;;;;4972811;28;20528;-81
2023/05/30 06:08:22;;;;;;;10.73;3.75;;;11.80;99.90;;;;;;4976492;28;20030;-82
2023/05/30 06:10:48;;;;;;;11.15;3.55;;;11.70;99.90;;;;;;4978493;28;20039;-81
2023/05/30 06:13:15;;;;;;;10.70;4.07;;;11.70;99.90;;;;;;4976219;28;20494;-81
2023/05/30 06:15:41;;;;;;;8.98;3.85;;;11.70;99.90;;;;;;4979152;28;20474;-81
2023/05/30 06:18:06;;;;;;;8.75;3.58;;;11.70;99.90;;;;;;4972168;28;20098;-81
2023/05/30 06:20:32;;;;;;;9.45;4.10;;;11.80;99.90;;;;;;4970786;28;20281;-82
2023/05/30 06:22:58;;;;;;;8.15;3.20;;;11.80;99.90;;;;;;4968259;28;20196;-81
2023/05/30 06:25:26;;;;;;;11.00;3.75;;;11.80;99.90;;;;;;4980231;28;20042;-82
2023/05/30 06:27:52;;;;;;;10.68;3.60;;;11.70;99.90;;;;;;4978065;28;20529;-82
2023/05/30 06:30:18;;;;;;;11.63;3.70;;;11.80;99.90;;;;;;4978075;28;20113;-81
2023/05/30 06:32:44;;;;;;;17.45;4.57;;;11.80;99.90;;;;;;4991313;28;20035;-81
2023/05/30 06:35:10;;;;;;;9.63;3.78;;;11.80;99.90;;;;;;4990259;28;20051;-81
2023/05/30 06:37:35;;;;;;;7.15;3.50;;;11.80;99.90;;;;;;4967623;28;21096;-81
2023/05/30 06:40:02;;;;;;;12.48;3.70;;;11.90;99.90;;;;;;4975447;28;20444;-81
2023/05/30 06:42:28;;;;;;;13.20;3.65;;;12.00;99.90;;;;;;4976550;28;20117;-81
2023/05/30 06:44:53;;;;;;;15.35;3.45;;;12.00;99.90;;;;;;4993097;28;20109;-81
2023/05/30 06:47:19;;;;;;;7.85;3.00;;;11.90;99.90;;;;;;4981081;28;20096;-81
2023/05/30 06:49:45;;;;;;;8.82;3.20;;;11.90;99.90;;;;;;4976880;28;20534;-81
2023/05/30 06:52:13;;;;;;;9.38;3.00;;;11.90;99.90;;;;;;4967825;28;20560;-82
2023/05/30 06:54:39;;;;;;;7.72;2.78;;;12.00;99.90;;;;;;4954349;28;20409;-81
2023/05/30 06:57:05;;;;;;;7.90;2.90;;;12.10;99.90;;;;;;4978797;28;20042;-81
2023/05/30 06:59:33;;;;;;;14.25;3.28;;;12.20;99.90;;;;;;4972702;28;20044;-81
2023/05/30 07:01:59;;;;;;;9.95;2.88;;;12.30;99.90;;;;;;4972557;28;20070;-81
2023/05/30 07:04:25;;;;;;;7.50;2.60;;;12.20;99.90;;;;;;4977346;28;20034;-81
2023/05/30 07:06:54;;;;;;;6.45;2.72;;;12.10;99.90;;;;;;4971478;28;20420;-81
2023/05/30 07:09:20;;;;;;;6.78;2.63;;;12.10;99.90;;;;;;4975838;28;20192;-81
2023/05/30 07:11:45;;;;;;;4.75;2.58;;;12.20;99.90;;;;;;4971414;28;20046;-81
2023/05/30 07:14:11;;;;;;;5.07;2.63;;;12.20;99.90;;;;;;4979120;28;20307;-81
2023/05/30 07:16:37;;;;;;;6.75;2.58;;;12.30;99.90;;;;;;4975419;28;20410;-81
2023/05/30 07:19:03;;;;;;;10.13;2.70;;;12.40;99.90;;;;;;4974744;28;20145;-81
2023/05/30 07:21:29;;;;;;;6.50;2.80;;;12.20;99.90;;;;;;4988957;28;20458;-81
2023/05/30 07:23:55;;;;;;;7.50;3.17;;;12.30;99.90;;;;;;4973503;28;20462;-81
2023/05/30 07:26:21;;;;;;;9.13;3.10;;;12.30;99.90;;;;;;4970697;28;20045;-82
2023/05/30 07:28:47;;;;;;;9.75;3.10;;;12.00;99.90;;;;;;4956572;28;20065;-81
2023/05/30 07:31:12;;;;;;;7.05;3.13;;;12.10;99.90;;;;;;4989270;28;20410;-81
2023/05/30 07:33:38;;;;;;;6.47;3.22;;;12.00;99.90;;;;;;4973540;28;20097;-82
2023/05/30 07:36:04;;;;;;;6.15;3.08;;;11.90;99.90;;;;;;4973208;28;20454;-82
2023/05/30 07:38:29;;;;;;;6.93;2.97;;;12.00;99.90;;;;;;4977508;28;20468;-81
2023/05/30 07:40:55;;;;;;;6.97;3.08;;;12.20;99.90;;;;;;4974941;28;20211;-81
2023/05/30 07:43:21;;;;;;;9.38;3.60;;;12.50;99.90;;;;;;4986256;28;20640;-81
2023/05/30 07:45:49;;;;;;;6.13;2.60;;;12.60;99.90;;;;;;4991352;28;20121;-81
2023/05/30 07:48:15;;;;;;;4.78;2.83;;;12.50;99.90;;;;;;4960584;28;20070;-82
2023/05/30 07:50:41;;;;;;;6.53;2.25;;;12.50;99.90;;;;;;4954498;28;20097;-81
2023/05/30 07:53:07;;;;;;;5.13;2.80;;;12.80;99.90;;;;;;4974418;28;20038;-81
2023/05/30 07:55:32;;;;;;;5.15;2.40;;;12.60;99.90;;;;;;4969682;28;20045;-81
2023/05/30 07:57:58;;;;;;;6.53;2.60;;;12.90;99.90;;;;;;4968261;28;20055;-81
2023/05/30 08:00:23;;;;;;;7.63;2.95;;;12.70;99.90;;;;;;4975286;28;20049;-81
2023/05/30 08:02:49;;;;;;;9.38;2.45;;;12.70;99.90;;;;;;4974013;28;20042;-81
2023/05/30 08:05:15;;;;;;;7.13;2.85;;;12.40;99.90;;;;;;4986827;28;20438;-81
2023/05/30 08:07:40;;;;;;;12.77;2.92;;;12.30;99.90;;;;;;4966496;28;20042;-81
2023/05/30 08:10:07;;;;;;;6.63;2.70;;;12.30;99.90;;;;;;4973450;28;20051;-81
2023/05/30 08:12:32;;;;;;;6.95;2.70;;;12.30;99.90;;;;;;4971093;28;20073;-81
2023/05/30 08:15:01;;;;;;;5.85;2.35;;;12.50;99.90;;;;;;4973933;28;20045;-81
2023/05/30 08:17:29;;;;;;;7.78;2.97;;;12.60;99.90;;;;;;4989440;28;20046;-81
2023/05/30 08:19:55;;;;;;;6.70;3.22;;;12.60;99.90;;;;;;4975124;28;20285;-81
2023/05/30 08:22:23;;;;;;;8.23;2.30;;;12.80;99.90;;;;;;4988865;28;20038;-81
2023/05/30 08:24:59;;;;;;;5.82;2.47;;;12.70;99.90;;;;;;4957969;28;20042;-82
2023/05/30 08:27:25;;;;;;;6.18;2.40;;;12.90;99.90;;;;;;4989800;28;20042;-81
2023/05/30 08:29:52;;;;;;;4.13;1.80;;;13.00;99.90;;;;;;4978198;28;20394;-81
2023/05/30 08:32:18;;;;;;;2.92;2.13;;;13.20;99.90;;;;;;4975446;28;20126;-81
2023/05/30 08:34:45;;;;;;;5.55;2.00;;;13.20;99.90;;;;;;4978023;28;20161;-81
2023/05/30 08:37:11;;;;;;;6.13;2.13;;;13.20;99.90;;;;;;4973008;28;20039;-81
2023/05/30 08:39:37;;;;;;;4.10;1.65;;;13.20;99.90;;;;;;4987388;28;20038;-81
2023/05/30 08:42:04;;;;;;;4.85;2.30;;;13.10;99.90;;;;;;4972757;28;20050;-81
2023/05/30 08:44:30;;;;;;;3.17;1.80;;;13.20;99.90;;;;;;4976036;28;20370;-81
2023/05/30 08:47:02;;;;;;;3.05;1.95;;;13.40;99.90;;;;;;4974350;28;20498;-81
2023/05/30 08:49:32;;;;;;;5.25;2.30;;;13.50;99.90;;;;;;4976721;28;20481;-81
2023/05/30 08:52:02;;;;;;;3.85;2.20;;;13.20;99.90;;;;;;4976104;28;20401;-81
2023/05/30 08:54:35;;;;;;;4.50;2.50;;;13.10;99.90;;;;;;4955229;28;20376;-81
2023/05/30 08:57:32;;;;;;;3.72;2.10;;;13.00;99.90;;;;;;4990689;28;20050;-81
2023/05/30 09:00:00;;;;;;;7.65;2.10;;;13.00;99.90;;;;;;4976767;28;20898;-82
2023/05/30 09:02:27;;;;;;;4.28;1.50;;;13.10;99.90;;;;;;4985681;28;20039;-81
2023/05/30 09:04:53;;;;;;;2.60;1.40;;;13.10;99.90;;;;;;4985689;28;20147;-81
2023/05/30 09:07:21;;;;;;;3.90;1.50;;;13.30;99.90;;;;;;4971272;28;20538;-81
2023/05/30 09:09:50;;;;;;;2.75;1.52;;;13.50;99.90;;;;;;4955807;28;20046;-81
2023/05/30 09:12:16;;;;;;;2.97;1.40;;;13.90;99.90;;;;;;4969383;28;20151;-81
2023/05/30 09:14:42;;;;;;;2.00;1.38;;;14.50;99.90;;;;;;4954850;28;20194;-81
2023/05/30 09:17:09;;;;;;;8.43;3.42;;;14.20;99.90;;;;;;4921078;28;20113;-81
2023/05/30 09:19:37;;;;;;;3.72;1.38;;;14.20;99.90;;;;;;4962042;28;20042;-81
2023/05/30 09:22:05;;;;;;;1.75;1.30;;;14.50;99.90;;;;;;4957895;28;20047;-81
2023/05/30 09:24:53;;;;;;;2.75;1.23;;;14.30;99.90;;;;;;4944374;28;20048;-81
2023/05/30 09:27:19;;;;;;;3.08;1.45;;;14.40;99.90;;;;;;4959809;28;20149;-81
2023/05/30 09:29:45;;;;;;;2.92;1.50;;;14.60;99.90;;;;;;4944083;28;20028;-82
2023/05/30 09:32:10;;;;;;;1.88;1.63;;;14.00;99.90;;;;;;4927343;28;20051;-81
2023/05/30 09:34:37;;;;;;;1.88;1.58;;;14.20;99.90;;;;;;4937158;28;20423;-81
2023/05/30 09:37:04;;;;;;;10.57;2.22;;;14.00;99.90;;;;;;4953719;28;20353;-82
2023/05/30 09:39:29;;;;;;;2.65;1.70;;;14.00;99.90;;;;;;4922571;28;20514;-81
2023/05/30 09:41:57;;;;;;;3.72;1.42;;;14.00;99.90;;;;;;4944607;28;20045;-81
2023/05/30 09:44:23;;;;;;;3.33;1.30;;;14.10;99.90;;;;;;4927689;28;20165;-81
2023/05/30 09:46:57;;;;;;;1.13;1.00;;;14.30;99.90;;;;;;4960861;28;20137;-81
2023/05/30 09:49:25;;;;;;;1.92;1.00;;;14.20;99.90;;;;;;4940999;28;20039;-81
2023/05/30 09:51:51;;;;;;;1.85;1.08;;;14.20;99.90;;;;;;4922358;28;20053;-81
2023/05/30 09:54:18;;;;;;;1.00;0.75;;;14.40;99.90;;;;;;4937388;28;20402;-81
2023/05/30 09:56:44;;;;;;;1.67;1.15;;;14.20;99.90;;;;;;4936212;28;20344;-81
2023/05/30 09:59:14;;;;;;;3.15;1.33;;;14.30;99.90;;;;;;4959449;28;20046;-82
2023/05/30 10:01:45;;;;;;;1.52;1.00;;;13.90;99.90;;;;;;4957318;28;20495;-81
2023/05/30 10:04:24;;;;;;;2.30;0.82;;;13.90;99.90;;;;;;4957188;28;20043;-81
2023/05/30 10:06:52;;;;;;;1.73;0.85;;;14.10;99.90;;;;;;4958441;28;20196;-81
2023/05/30 10:09:22;;;;;;;1.48;1.10;;;13.70;99.90;;;;;;4943192;28;20034;-81
2023/05/30 10:11:49;;;;;;;5.43;1.40;;;13.70;99.90;;;;;;4937370;28;20181;-81
2023/05/30 10:14:14;;;;;;;1.50;1.10;;;13.70;99.90;;;;;;4993554;28;20058;-81
2023/05/30 10:16:57;;;;;;;3.33;1.60;;;13.40;99.90;;;;;;4994326;28;20522;-82
2023/05/30 10:19:31;;;;;;;1.50;1.30;;;13.30;99.90;;;;;;4979002;28;20273;-82
2023/05/30 10:21:58;;;;;;;3.47;1.60;;;13.20;99.90;;;;;;4971909;28;20134;-81
2023/05/30 10:24:27;;;;;;;1.52;1.30;;;13.10;99.90;;;;;;4977366;28;20153;-82
2023/05/30 10:27:01;;;;;;;2.90;1.40;;;12.90;99.90;;;;;;4977281;28;20277;-82
2023/05/30 10:29:34;;;;;;;3.92;1.50;;;13.00;99.90;;;;;;4977307;28;20113;-81
2023/05/30 10:32:03;;;;;;;2.08;1.13;;;12.90;99.90;;;;;;4989966;28;20663;-81
2023/05/30 10:34:46;;;;;;;5.30;1.40;;;13.10;99.90;;;;;;4970360;28;20120;-81
2023/05/30 10:37:12;;;;;;;2.33;1.60;;;13.40;99.90;;;;;;4955438;28;20506;-81
2023/05/30 10:39:58;;;;;;;2.13;1.50;;;13.40;99.90;;;;;;4977704;28;20078;-81
2023/05/30 10:42:53;;;;;;;2.53;1.40;;;13.60;99.90;;;;;;4986561;28;20062;-81
2023/05/30 10:45:28;;;;;;;1.70;1.20;;;13.90;99.90;;;;;;4978287;28;20545;-81
2023/05/30 10:48:32;;;;;;;2.28;1.70;;;14.10;99.90;;;;;;4979003;28;20591;-81
2023/05/30 10:50:59;;;;;;;1.88;1.63;;;14.40;99.90;;;;;;4977364;28;20360;-81
2023/05/30 10:53:26;;;;;;;3.72;1.95;;;14.90;99.90;;;;;;4992420;28;20193;-81
2023/05/30 10:55:55;;;;;;;2.05;1.25;;;15.00;99.90;;;;;;4972112;28;20410;-82
2023/05/30 10:58:42;;;;;;;1.85;1.38;;;14.80;99.90;;;;;;4973776;28;20034;-81
2023/05/30 11:01:27;;;;;;;1.52;1.10;;;14.60;99.90;;;;;;4979301;28;20038;-81
2023/05/30 11:04:03;;;;;;;5.45;0.93;;;14.70;99.90;;;;;;4975477;28;20104;-81
2023/05/30 11:06:49;;;;;;;1.88;1.20;;;14.30;99.90;;;;;;4974059;28;20514;-82
2023/05/30 11:09:17;;;;;;;1.27;0.95;;;14.00;99.90;;;;;;4959190;28;20156;-81
2023/05/30 11:11:53;;;;;;;3.58;1.40;;;14.10;99.90;;;;;;4989721;28;20259;-81
2023/05/30 11:14:25;;;;;;;1.25;1.02;;;14.20;99.90;;;;;;4960600;28;20074;-82
2023/05/30 11:17:05;;;;;;;2.85;0.90;;;14.30;99.90;;;;;;4990259;28;20369;-82
2023/05/30 11:19:47;;;;;;;1.08;0.98;;;14.40;99.90;;;;;;4974357;28;20165;-81
2023/05/30 11:22:13;;;;;;;1.77;1.00;;;14.80;99.90;;;;;;4989547;28;20053;-81
2023/05/30 11:24:45;;;;;;;6.68;1.20;;;15.00;99.90;;;;;;4977716;28;20034;-81
2023/05/30 11:27:13;;;;;;;2.13;1.40;;;14.60;99.90;;;;;;4974554;28;20046;-81
2023/05/30 11:29:47;;;;;;;2.30;1.25;;;14.50;99.90;;;;;;4959006;28;20077;-82
2023/05/30 11:32:20;;;;;;;2.90;1.20;;;14.40;99.90;;;;;;4977504;28;20038;-81
2023/05/30 11:34:56;;;;;;;4.47;1.20;;;14.40;99.90;;;;;;4973462;28;20038;-82
2023/05/30 11:37:22;;;;;;;2.03;1.17;;;14.50;99.90;;;;;;4966530;28;20059;-82
2023/05/30 11:39:48;;;;;;;1.80;1.30;;;14.40;99.90;;;;;;4973933;28;20042;-81
2023/05/30 11:42:13;;;;;;;3.80;1.23;;;14.60;99.90;;;;;;4968549;28;20465;-81
2023/05/30 11:44:42;;;;;;;7.28;1.48;;;15.00;99.90;;;;;;4977806;28;20073;-81
2023/05/30 11:47:10;;;;;;;1.45;1.30;;;15.40;99.90;;;;;;4972696;28;20070;-81
2023/05/30 11:49:36;;;;;;;2.13;1.30;;;15.10;99.90;;;;;;4977627;28;20038;-81
2023/05/30 11:52:02;;;;;;;3.42;1.50;;;15.20;99.90;;;;;;4972476;28;20119;-81
2023/05/30 11:54:27;;;;;;;2.83;1.60;;;14.80;99.90;;;;;;4974975;28;20046;-82
2023/05/30 11:56:56;;;;;;;2.55;1.50;;;14.60;99.90;;;;;;4977234;28;20050;-81
2023/05/30 11:59:24;;;;;;;1.98;1.60;;;14.50;99.90;;;;;;4984508;28;20054;-82
2023/05/30 12:01:57;;;;;;;1.55;1.40;;;14.60;99.90;;;;;;4957056;28;20045;-81
2023/05/30 12:04:31;;;;;;;2.42;1.30;;;14.70;99.90;;;;;;4973657;28;20046;-81
2023/05/30 12:07:04;;;;;;;3.15;1.60;;;14.50;99.90;;;;;;4969301;28;20031;-81
2023/05/30 12:09:40;;;;;;;3.08;1.77;;;14.70;99.90;;;;;;4958503;28;20039;-82
2023/05/30 12:12:07;;;;;;;1.90;1.70;;;14.60;99.90;;;;;;4972743;28;20046;-81
2023/05/30 12:14:38;;;;;;;2.75;1.80;;;15.40;99.90;;;;;;4990045;28;20050;-81
2023/05/30 12:17:20;;;;;;;2.60;1.40;;;15.50;99.90;;;;;;4975112;28;20042;-81
2023/05/30 12:19:46;;;;;;;3.15;1.70;;;15.40;99.90;;;;;;4969689;28;20053;-82
2023/05/30 12:22:17;;;;;;;2.50;1.90;;;15.40;99.90;;;;;;4971999;28;20062;-81
2023/05/30 12:24:46;;;;;;;1.45;1.35;;;15.20;99.90;;;;;;4972113;28;20049;-82
2023/05/30 12:27:20;;;;;;;1.65;1.30;;;15.20;99.90;;;;;;4970248;28;20050;-82
2023/05/30 12:29:50;;;;;;;2.63;1.42;;;15.10;99.90;;;;;;4971600;28;20166;-81
2023/05/30 12:32:23;;;;;;;2.13;1.38;;;16.00;99.90;;;;;;4980607;28;20081;-81
2023/05/30 12:34:49;;;;;;;2.17;1.52;;;16.00;99.90;;;;;;4975650;28;20048;-81
2023/05/30 12:37:18;;;;;;;2.78;1.50;;;15.90;99.90;;;;;;4950596;28;20054;-81
2023/05/30 12:39:51;;;;;;;3.05;1.50;;;15.50;99.90;;;;;;4988753;28;20038;-81
2023/05/30 12:42:21;;;;;;;3.50;1.55;;;15.90;99.90;;;;;;4971105;28;20138;-81
2023/05/30 12:44:48;;;;;;;2.50;1.75;;;15.90;99.90;;;;;;4955016;28;20035;-81
2023/05/30 12:47:15;;;;;;;1.83;1.50;;;15.80;99.90;;;;;;4984340;28;20049;-81
2023/05/30 12:49:41;;;;;;;1.90;1.50;;;16.00;99.90;;;;;;4969728;28;20117;-81